createdAt,value
2023-04-05T00:02:29.979Z,87.66
2023-04-05T00:04:59.836Z,89.19
2023-04-05T00:07:28.416Z,89.78
2023-04-05T00:09:56.787Z,91.35
2023-04-05T00:12:25.041Z,92.85
2023-04-05T00:14:54.655Z,93.36
2023-04-05T00:17:23.017Z,93.61
2023-04-05T00:19:57.479Z,94.23
2023-04-05T00:22:27.277Z,96.93
2023-04-05T00:24:55.839Z,100.00
2023-04-05T00:27:23.962Z,99.15
2023-04-05T00:29:52.132Z,97.34
2023-04-05T00:32:22.236Z,93.83
2023-04-05T00:34:51.793Z,91.28
2023-04-05T00:37:19.813Z,90.51
2023-04-05T00:39:48.460Z,91.67
2023-04-05T00:42:17.024Z,90.06
2023-04-05T00:44:45.107Z,90.44
2023-04-05T00:47:13.287Z,90.72
2023-04-05T00:49:43.392Z,91.35
2023-04-05T00:52:11.716Z,92.69
2023-04-05T00:54:41.682Z,91.58
2023-04-05T00:57:09.878Z,91.81
2023-04-05T00:59:39.236Z,91.36
2023-04-05T01:02:13.646Z,90.92
2023-04-05T01:04:50.100Z,90.27
2023-04-05T01:07:24.864Z,90.51
2023-04-05T01:09:55.054Z,90.32
2023-04-05T01:12:25.186Z,89.72
2023-04-05T01:14:54.380Z,90.63
2023-04-05T01:17:23.104Z,91.39
2023-04-05T01:19:54.525Z,91.55
2023-04-05T01:22:43.506Z,93.94
2023-04-05T01:25:24.224Z,96.12
2023-04-05T01:28:07.169Z,95.63
2023-04-05T01:30:39.065Z,96.06
2023-04-05T01:33:15.754Z,97.09
2023-04-05T01:35:47.640Z,98.29
2023-04-05T01:38:19.127Z,100.00
2023-04-05T01:40:47.763Z,100.00
2023-04-05T01:43:16.130Z,100.00
2023-04-05T01:45:46.179Z,100.00
2023-04-05T01:48:14.619Z,100.00
2023-04-05T01:50:43.511Z,100.00
2023-04-05T01:53:11.928Z,100.00
2023-04-05T01:55:39.965Z,100.00
2023-04-05T01:58:09.974Z,100.00
2023-04-05T02:00:38.970Z,100.00
2023-04-05T02:03:08.904Z,100.00
2023-04-05T02:05:37.591Z,100.00
2023-04-05T02:08:05.578Z,100.00
2023-04-05T02:10:33.875Z,100.00
2023-04-05T02:13:02.199Z,100.00
2023-04-05T02:15:32.951Z,100.00
2023-04-05T02:18:02.433Z,100.00
2023-04-05T02:20:33.285Z,100.00
2023-04-05T02:23:02.109Z,100.00
2023-04-05T02:25:30.349Z,100.00
2023-04-05T02:27:58.960Z,100.00
2023-04-05T02:30:29.069Z,100.00
2023-04-05T02:32:58.178Z,100.00
2023-04-05T02:35:26.271Z,100.00
2023-04-05T02:37:56.856Z,100.00
2023-04-05T02:40:25.640Z,100.00
2023-04-05T02:42:53.496Z,100.00
2023-04-05T02:45:21.673Z,100.00
2023-04-05T02:47:50.389Z,100.00
2023-04-05T02:50:20.699Z,100.00
2023-04-05T02:52:49.229Z,100.00
2023-04-05T02:55:19.711Z,100.00
2023-04-05T02:57:47.669Z,100.00
2023-04-05T03:00:26.384Z,100.00
2023-04-05T03:02:56.706Z,100.00
2023-04-05T03:05:25.492Z,100.00
2023-04-05T03:07:54.799Z,100.00
2023-04-05T03:10:35.140Z,100.00
2023-04-05T03:13:12.725Z,100.00
2023-04-05T03:15:42.504Z,100.00
2023-04-05T03:18:14.586Z,100.00
2023-04-05T03:20:46.421Z,100.00
2023-04-05T03:23:20.437Z,100.00
2023-04-05T03:25:56.844Z,100.00
2023-04-05T03:28:28.415Z,100.00
2023-04-05T03:31:02.012Z,100.00
2023-04-05T03:33:30.819Z,100.00
2023-04-05T03:35:59.023Z,100.00
2023-04-05T03:38:29.562Z,100.00
2023-04-05T03:41:13.057Z,100.00
2023-04-05T03:43:41.201Z,100.00
2023-04-05T03:46:09.770Z,100.00
2023-04-05T03:48:37.984Z,100.00
2023-04-05T03:51:06.357Z,100.00
2023-04-05T03:53:34.518Z,100.00
2023-04-05T03:56:03.976Z,100.00
2023-04-05T03:58:49.713Z,100.00
2023-04-05T04:01:23.924Z,100.00
2023-04-05T04:03:52.103Z,100.00
2023-04-05T04:06:20.347Z,100.00
2023-04-05T04:08:48.461Z,100.00
2023-04-05T04:11:16.742Z,100.00
2023-04-05T04:13:46.396Z,100.00
2023-04-05T04:16:23.669Z,100.00
2023-04-05T04:19:14.947Z,100.00
2023-04-05T04:21:53.493Z,100.00
2023-04-05T04:24:32.859Z,100.00
2023-04-05T04:27:29.514Z,100.00
2023-04-05T04:30:22.801Z,100.00
2023-04-05T04:33:09.337Z,100.00
2023-04-05T04:35:56.651Z,100.00
2023-04-05T04:38:48.386Z,100.00
2023-04-05T04:41:38.468Z,100.00
2023-04-05T04:44:31.596Z,100.00
2023-04-05T04:47:24.300Z,100.00
2023-04-05T04:50:05.431Z,100.00
2023-04-05T04:52:35.034Z,100.00
2023-04-05T04:55:04.335Z,100.00
2023-04-05T04:57:32.492Z,100.00
2023-04-05T05:00:00.705Z,100.00
2023-04-05T05:02:31.456Z,100.00
2023-04-05T05:04:59.796Z,100.00
2023-04-05T05:07:27.959Z,100.00
2023-04-05T05:09:56.047Z,100.00
2023-04-05T05:12:24.770Z,100.00
2023-04-05T05:14:52.948Z,100.00
2023-04-05T05:17:25.705Z,100.00
2023-04-05T05:19:56.396Z,100.00
2023-04-05T05:22:25.134Z,100.00
2023-04-05T05:24:53.055Z,100.00
2023-04-05T05:27:21.810Z,100.00
2023-04-05T05:29:50.292Z,100.00
2023-04-05T05:32:18.364Z,100.00
2023-04-05T05:34:49.207Z,100.00
2023-04-05T05:37:18.633Z,100.00
2023-04-05T05:39:46.807Z,100.00
2023-04-05T05:42:14.787Z,100.00
2023-04-05T05:44:42.990Z,100.00
2023-04-05T05:47:11.484Z,100.00
2023-04-05T05:49:43.573Z,100.00
2023-04-05T05:52:11.821Z,100.00
2023-04-05T05:54:41.768Z,100.00
2023-04-05T05:57:09.931Z,100.00
2023-04-05T05:59:38.215Z,97.54
2023-04-05T06:02:08.578Z,95.85
2023-04-05T06:04:38.253Z,94.94
2023-04-05T06:07:06.536Z,93.65
2023-04-05T06:09:35.583Z,100.00
2023-04-05T06:12:06.809Z,99.37
2023-04-05T06:14:35.375Z,100.00
2023-04-05T06:17:04.520Z,100.00
2023-04-05T06:19:33.578Z,100.00
2023-04-05T06:22:02.755Z,100.00
2023-04-05T06:24:32.339Z,100.00
2023-04-05T06:27:02.148Z,100.00
2023-04-05T06:29:32.642Z,97.61
2023-04-05T06:32:03.246Z,88.23
2023-04-05T06:34:37.432Z,81.72
2023-04-05T06:37:06.517Z,85.15
2023-04-05T06:39:34.653Z,86.69
2023-04-05T06:42:02.847Z,81.91
2023-04-05T06:44:41.479Z,80.73
2023-04-05T06:47:10.177Z,82.74
2023-04-05T06:49:38.641Z,72.67
2023-04-05T06:52:07.092Z,69.20
2023-04-05T06:54:38.643Z,69.33
2023-04-05T06:57:06.861Z,69.48
2023-04-05T06:59:37.194Z,69.10
2023-04-05T07:02:06.917Z,68.96
2023-04-05T07:04:37.206Z,67.83
2023-04-05T07:07:06.784Z,63.69
2023-04-05T07:09:38.276Z,64.08
2023-04-05T07:12:08.812Z,62.87
2023-04-05T07:14:37.798Z,63.62
2023-04-05T07:17:07.854Z,62.67
2023-04-05T07:19:36.321Z,61.18
2023-04-05T07:22:04.270Z,57.80
2023-04-05T07:24:33.208Z,56.82
2023-04-05T07:27:03.058Z,59.04
2023-04-05T07:29:31.386Z,57.08
2023-04-05T07:31:59.730Z,55.07
2023-04-05T07:34:29.342Z,51.39
2023-04-05T07:36:58.076Z,48.97
2023-04-05T07:39:26.586Z,48.94
2023-04-05T07:41:54.627Z,48.55
2023-04-05T07:44:23.199Z,48.03
2023-04-05T07:46:51.761Z,47.27
2023-04-05T07:49:22.141Z,47.98
2023-04-05T07:51:55.601Z,47.52
2023-04-05T07:54:24.170Z,44.77
2023-04-05T07:56:55.472Z,43.80
2023-04-05T07:59:23.806Z,45.26
2023-04-05T08:01:52.869Z,46.26
2023-04-05T08:04:25.323Z,45.18
2023-04-05T08:06:55.021Z,44.11
2023-04-05T08:09:25.193Z,42.63
2023-04-05T08:11:54.117Z,42.61
2023-04-05T08:14:25.096Z,41.33
2023-04-05T08:16:55.036Z,39.36
2023-04-05T08:19:23.397Z,40.65
2023-04-05T08:21:52.038Z,38.38
2023-04-05T08:24:22.438Z,38.05
2023-04-05T08:26:50.598Z,39.38
2023-04-05T08:29:19.052Z,40.60
2023-04-05T08:31:48.004Z,40.98
2023-04-05T08:34:17.221Z,42.29
2023-04-05T08:36:48.877Z,40.79
2023-04-05T08:39:17.797Z,40.42
2023-04-05T08:41:50.305Z,37.89
2023-04-05T08:44:20.600Z,38.26
2023-04-05T08:46:56.261Z,39.03
2023-04-05T08:49:30.111Z,39.86
2023-04-05T08:52:01.360Z,41.22
2023-04-05T08:54:32.672Z,39.18
2023-04-05T08:57:05.988Z,36.51
2023-04-05T08:59:35.649Z,39.23
2023-04-05T09:02:07.815Z,40.85
2023-04-05T09:04:39.859Z,41.04
2023-04-05T09:07:08.751Z,41.71
2023-04-05T09:09:39.389Z,40.66
2023-04-05T09:12:11.621Z,40.76
2023-04-05T09:14:40.309Z,39.51
2023-04-05T09:17:08.847Z,39.88
2023-04-05T09:19:38.336Z,39.63
2023-04-05T09:22:07.715Z,41.95
2023-04-05T09:24:43.443Z,40.08
2023-04-05T09:27:16.089Z,40.48
2023-04-05T09:29:47.572Z,38.50
2023-04-05T09:32:19.748Z,38.62
2023-04-05T09:34:48.277Z,39.10
2023-04-05T09:37:29.223Z,34.83
2023-04-05T09:40:07.498Z,34.14
2023-04-05T09:42:45.635Z,34.71
2023-04-05T09:45:14.711Z,33.51
2023-04-05T09:48:10.189Z,32.06
2023-04-05T09:50:39.343Z,35.96
2023-04-05T09:53:09.997Z,40.01
2023-04-05T09:55:38.352Z,37.97
2023-04-05T09:58:13.135Z,35.61
2023-04-05T10:01:00.060Z,35.35
2023-04-05T10:03:47.423Z,32.78
2023-04-05T10:06:15.602Z,30.75
2023-04-05T10:08:43.750Z,30.08
2023-04-05T10:11:13.638Z,28.48
2023-04-05T10:13:45.055Z,27.32
2023-04-05T10:16:19.414Z,25.84
2023-04-05T10:18:51.727Z,27.71
2023-04-05T10:21:22.845Z,32.50
2023-04-05T10:23:56.476Z,30.98
2023-04-05T10:26:31.568Z,28.95
2023-04-05T10:29:05.145Z,28.79
2023-04-05T10:58:37.641Z,23.39
2023-04-05T12:18:48.406Z,13.75
2023-04-05T12:22:25.056Z,12.68
2023-04-05T13:37:18.272Z,10.12
2023-04-05T14:27:01.773Z,12.61
2023-04-05T14:29:39.505Z,11.81
2023-04-05T14:35:09.874Z,10.65
2023-04-05T14:40:31.497Z,12.44
2023-04-05T14:46:17.467Z,12.26
2023-04-05T14:52:07.154Z,10.70
2023-04-05T14:54:37.104Z,10.66
2023-04-05T14:57:36.130Z,10.07
2023-04-05T15:03:13.211Z,13.40
2023-04-05T15:14:32.427Z,11.15
2023-04-05T15:17:03.768Z,15.01
2023-04-05T15:30:39.856Z,12.24
2023-04-05T15:37:06.468Z,15.50
2023-04-05T16:03:27.589Z,16.41
2023-04-05T16:27:26.675Z,18.78
2023-04-05T16:29:54.973Z,21.39
2023-04-05T16:32:27.170Z,21.48
2023-04-05T16:34:56.364Z,21.51
2023-04-05T16:53:02.822Z,17.82
2023-04-05T16:56:08.679Z,19.16
2023-04-05T17:01:22.508Z,16.98
2023-04-05T17:03:53.398Z,18.08
2023-04-05T17:06:22.953Z,17.48
2023-04-05T17:08:53.483Z,17.50
2023-04-05T17:11:25.273Z,19.31
2023-04-05T17:13:55.371Z,19.19
2023-04-05T17:16:24.270Z,18.12
2023-04-05T17:18:53.810Z,18.24
2023-04-05T17:21:23.415Z,18.52
2023-04-05T17:23:55.032Z,19.87
2023-04-05T17:26:26.892Z,21.45
2023-04-05T17:28:56.130Z,21.70
2023-04-05T17:31:24.278Z,23.16
2023-04-05T17:33:56.224Z,23.82
2023-04-05T17:36:34.071Z,24.28
2023-04-05T17:39:02.218Z,25.83
2023-04-05T17:41:30.533Z,25.88
2023-04-05T17:44:06.408Z,26.63
2023-04-05T17:49:20.269Z,28.82
2023-04-05T17:51:54.964Z,29.04
2023-04-05T17:54:23.425Z,30.22
2023-04-05T17:56:58.414Z,30.10
2023-04-05T17:59:26.935Z,31.99
2023-04-05T18:01:56.774Z,32.17
2023-04-05T18:04:26.109Z,31.84
2023-04-05T18:06:56.520Z,32.17
2023-04-05T18:09:24.778Z,33.87
2023-04-05T18:11:57.123Z,33.01
2023-04-05T18:14:30.404Z,33.85
2023-04-05T18:17:10.562Z,34.42
2023-04-05T18:20:07.833Z,34.59
2023-04-05T18:22:39.872Z,35.86
2023-04-05T18:25:33.375Z,35.08
2023-04-05T18:28:22.755Z,36.07
2023-04-05T18:30:53.188Z,35.67
2023-04-05T18:33:22.692Z,35.76
2023-04-05T18:35:53.130Z,36.39
2023-04-05T18:38:23.101Z,35.39
2023-04-05T18:41:08.478Z,35.95
2023-04-05T18:43:36.737Z,36.35
2023-04-05T18:46:10.612Z,36.99
2023-04-05T18:48:39.382Z,37.81
2023-04-05T18:51:08.302Z,38.68
2023-04-05T18:53:38.197Z,40.82
2023-04-05T18:56:06.518Z,43.07
2023-04-05T18:58:40.035Z,44.17
2023-04-05T19:01:15.446Z,40.47
2023-04-05T19:03:44.069Z,41.54
2023-04-05T19:06:14.869Z,42.08
2023-04-05T19:08:48.435Z,43.75
2023-04-05T19:11:18.596Z,43.25
2023-04-05T19:13:47.930Z,42.93
2023-04-05T19:16:17.625Z,42.99
2023-04-05T19:18:46.190Z,46.43
2023-04-05T19:21:15.957Z,48.73
2023-04-05T19:23:45.425Z,49.00
2023-04-05T19:26:13.946Z,53.42
2023-04-05T19:28:43.715Z,54.37
2023-04-05T19:31:13.258Z,54.84
2023-04-05T19:33:41.396Z,55.06
2023-04-05T19:36:09.380Z,57.50
2023-04-05T19:41:26.118Z,62.75
2023-04-05T19:43:58.116Z,64.98
2023-04-05T19:46:29.520Z,60.70
2023-04-05T19:48:59.453Z,58.52
2023-04-05T19:51:28.687Z,54.02
2023-04-05T19:53:57.798Z,54.71
2023-04-05T19:56:36.868Z,55.76
2023-04-05T19:59:26.154Z,55.13
2023-04-05T20:02:01.126Z,56.19
2023-04-05T20:04:39.216Z,56.81
2023-04-05T20:07:10.382Z,60.27
2023-04-05T20:09:42.197Z,59.89
2023-04-05T20:12:16.241Z,66.38
2023-04-05T20:14:48.017Z,73.29
2023-04-05T20:17:34.147Z,77.30
2023-04-05T20:20:02.172Z,72.48
2023-04-05T20:22:32.925Z,67.75
2023-04-05T20:25:01.066Z,66.16
2023-04-05T20:27:30.859Z,65.06
2023-04-05T20:29:58.954Z,64.43
2023-04-05T20:32:28.018Z,64.92
2023-04-05T20:34:56.629Z,65.51
2023-04-05T20:37:25.962Z,66.67
2023-04-05T20:39:58.648Z,68.44
2023-04-05T20:42:26.883Z,69.64
2023-04-05T20:45:05.054Z,71.72
2023-04-05T20:47:34.228Z,73.16
2023-04-05T20:50:03.621Z,72.01
2023-04-05T20:52:32.596Z,71.70
2023-04-05T20:55:01.897Z,73.21
2023-04-05T20:57:30.904Z,73.66
2023-04-05T21:00:02.442Z,74.78
2023-04-05T21:02:31.409Z,74.43
2023-04-05T21:05:00.548Z,74.78
2023-04-05T21:07:28.921Z,74.22
2023-04-05T21:09:57.329Z,76.78
2023-04-05T21:12:25.710Z,84.93
2023-04-05T21:14:54.511Z,81.32
2023-04-05T21:17:24.300Z,79.28
2023-04-05T21:19:53.310Z,81.38
2023-04-05T21:22:24.897Z,82.50
2023-04-05T21:24:53.322Z,83.72
2023-04-05T21:27:24.880Z,84.66
2023-04-05T21:29:54.596Z,87.22
2023-04-05T21:32:24.779Z,84.62
2023-04-05T21:34:53.421Z,78.81
2023-04-05T21:37:22.228Z,78.03
2023-04-05T21:39:50.426Z,78.18
2023-04-05T21:42:19.107Z,80.16
2023-04-05T21:44:48.076Z,81.63
2023-04-05T21:47:17.574Z,83.08
2023-04-05T21:49:47.577Z,85.48
2023-04-05T21:52:17.645Z,84.30
2023-04-05T21:54:47.228Z,83.97
2023-04-05T21:57:17.895Z,83.42
2023-04-05T21:59:48.324Z,83.02
2023-04-05T22:02:16.445Z,86.91
2023-04-05T22:04:48.060Z,85.46
2023-04-05T22:07:17.303Z,82.39
2023-04-05T22:09:45.796Z,81.70
2023-04-05T22:12:15.516Z,80.92
2023-04-05T22:14:43.823Z,80.32
2023-04-05T22:17:11.934Z,81.54
2023-04-05T22:19:44.008Z,86.16
2023-04-05T22:22:15.135Z,83.94
2023-04-05T22:24:43.615Z,83.17
2023-04-05T22:27:13.596Z,80.49
2023-04-05T22:29:41.984Z,81.43
2023-04-05T22:32:10.449Z,76.81
2023-04-05T22:34:39.126Z,73.94
2023-04-05T22:37:07.315Z,74.46
2023-04-05T22:39:37.578Z,73.90
2023-04-05T22:42:06.629Z,73.67
2023-04-05T22:44:34.806Z,74.78
2023-04-05T22:47:03.416Z,77.82
2023-04-05T22:49:32.129Z,76.05
2023-04-05T22:52:02.168Z,75.98
2023-04-05T22:54:30.518Z,74.28
2023-04-05T22:57:04.199Z,74.19
2023-04-05T22:59:33.456Z,71.08
2023-04-05T23:02:01.873Z,73.56
2023-04-05T23:04:30.145Z,73.16
2023-04-05T23:06:58.397Z,74.63
2023-04-05T23:09:26.624Z,75.55
2023-04-05T23:11:54.907Z,78.89
2023-04-05T23:14:24.906Z,84.69
2023-04-05T23:16:53.277Z,87.64
2023-04-05T23:19:22.270Z,84.58
2023-04-05T23:21:51.359Z,83.77
2023-04-05T23:24:20.617Z,82.95
2023-04-05T23:26:49.909Z,89.78
2023-04-05T23:29:19.699Z,97.15
2023-04-05T23:31:50.130Z,98.44
2023-04-05T23:34:19.100Z,100.00
2023-04-05T23:36:47.581Z,100.00
2023-04-05T23:39:16.894Z,100.00
2023-04-05T23:41:46.508Z,100.00
2023-04-05T23:44:14.996Z,100.00
2023-04-05T23:46:43.453Z,100.00
2023-04-05T23:49:14.411Z,100.00
2023-04-05T23:51:43.286Z,100.00
2023-04-05T23:54:12.080Z,100.00
2023-04-05T23:56:40.597Z,100.00
2023-04-05T23:59:09.355Z,100.00
